sensor_id;sensor_type;location;lat;lon;timestamp;temperature;humidity
40340;DHT22;26044;50.864;20.658;2022-11-25T00:01:17;0.30;99.90
40340;DHT22;26044;50.864;20.658;2022-11-25T00:03:45;0.20;99.90
40340;DHT22;26044;50.864;20.658;2022-11-25T00:06:21;0.20;99.90
40340;DHT22;26044;50.864;20.658;2022-11-25T00:08:51;0.30;99.90
40340;DHT22;26044;50.864;20.658;2022-11-25T00:11:19;0.20;99.90
40340;DHT22;26044;50.864;20.658;2022-11-25T00:13:46;0.20;99.90
40340;DHT22;26044;50.864;20.658;2022-11-25T00:16:17;0.30;99.90
40340;DHT22;26044;50.864;20.658;2022-11-25T00:18:45;0.30;99.90
40340;DHT22;26044;50.864;20.658;2022-11-25T00:21:14;0.20;99.90
40340;DHT22;26044;50.864;20.658;2022-11-25T00:23:41;0.20;99.90
40340;DHT22;26044;50.864;20.658;2022-11-25T00:28:37;0.30;99.90
40340;DHT22;26044;50.864;20.658;2022-11-25T00:31:11;0.30;99.90
40340;DHT22;26044;50.864;20.658;2022-11-25T00:33:38;0.30;99.90
40340;DHT22;26044;50.864;20.658;2022-11-25T00:36:10;0.20;99.90
40340;DHT22;26044;50.864;20.658;2022-11-25T00:38:39;0.30;99.90
40340;DHT22;26044;50.864;20.658;2022-11-25T00:41:06;0.20;99.90
40340;DHT22;26044;50.864;20.658;2022-11-25T00:43:51;0.20;99.90
40340;DHT22;26044;50.864;20.658;2022-11-25T00:46:37;0.20;99.90
40340;DHT22;26044;50.864;20.658;2022-11-25T00:49:03;0.20;99.90
40340;DHT22;26044;50.864;20.658;2022-11-25T00:51:30;0.20;99.90
40340;DHT22;26044;50.864;20.658;2022-11-25T00:53:57;0.20;99.90
40340;DHT22;26044;50.864;20.658;2022-11-25T00:56:25;0.20;99.90
40340;DHT22;26044;50.864;20.658;2022-11-25T00:58:52;0.30;99.90
40340;DHT22;26044;50.864;20.658;2022-11-25T01:01:19;0.30;99.90
40340;DHT22;26044;50.864;20.658;2022-11-25T01:03:48;0.30;99.90
40340;DHT22;26044;50.864;20.658;2022-11-25T01:06:15;0.30;99.90
40340;DHT22;26044;50.864;20.658;2022-11-25T01:08:42;0.30;99.90
40340;DHT22;26044;50.864;20.658;2022-11-25T01:11:13;0.20;99.90
40340;DHT22;26044;50.864;20.658;2022-11-25T01:13:41;0.30;99.90
40340;DHT22;26044;50.864;20.658;2022-11-25T01:16:13;0.30;99.90
40340;DHT22;26044;50.864;20.658;2022-11-25T01:18:41;0.30;99.90
40340;DHT22;26044;50.864;20.658;2022-11-25T01:21:11;0.30;99.90
40340;DHT22;26044;50.864;20.658;2022-11-25T01:23:39;0.30;99.90
40340;DHT22;26044;50.864;20.658;2022-11-25T01:26:11;0.30;99.90
40340;DHT22;26044;50.864;20.658;2022-11-25T01:28:39;0.30;99.90
40340;DHT22;26044;50.864;20.658;2022-11-25T01:33:37;0.30;99.90
40340;DHT22;26044;50.864;20.658;2022-11-25T01:36:09;0.30;99.90
40340;DHT22;26044;50.864;20.658;2022-11-25T01:38:37;0.30;99.90
40340;DHT22;26044;50.864;20.658;2022-11-25T01:41:05;0.30;99.90
40340;DHT22;26044;50.864;20.658;2022-11-25T01:43:32;0.30;99.90
40340;DHT22;26044;50.864;20.658;2022-11-25T01:46:08;0.30;99.90
40340;DHT22;26044;50.864;20.658;2022-11-25T01:48:43;0.30;99.90
40340;DHT22;26044;50.864;20.658;2022-11-25T01:51:27;0.20;99.90
40340;DHT22;26044;50.864;20.658;2022-11-25T01:53:58;0.20;99.90
40340;DHT22;26044;50.864;20.658;2022-11-25T01:56:27;0.20;99.90
40340;DHT22;26044;50.864;20.658;2022-11-25T01:58:56;0.30;99.90
40340;DHT22;26044;50.864;20.658;2022-11-25T02:01:22;0.30;99.90
40340;DHT22;26044;50.864;20.658;2022-11-25T02:03:51;0.30;99.90
40340;DHT22;26044;50.864;20.658;2022-11-25T02:06:25;0.30;99.90
40340;DHT22;26044;50.864;20.658;2022-11-25T02:09:02;0.20;99.90
40340;DHT22;26044;50.864;20.658;2022-11-25T02:11:30;0.30;99.90
40340;DHT22;26044;50.864;20.658;2022-11-25T02:13:58;0.30;99.90
40340;DHT22;26044;50.864;20.658;2022-11-25T02:16:25;0.30;99.90
40340;DHT22;26044;50.864;20.658;2022-11-25T02:18:52;0.30;99.90
40340;DHT22;26044;50.864;20.658;2022-11-25T02:21:30;0.30;99.90
40340;DHT22;26044;50.864;20.658;2022-11-25T02:24:06;0.30;99.90
40340;DHT22;26044;50.864;20.658;2022-11-25T02:26:35;0.30;99.90
40340;DHT22;26044;50.864;20.658;2022-11-25T02:29:02;0.40;99.90
40340;DHT22;26044;50.864;20.658;2022-11-25T02:31:29;0.40;99.90
40340;DHT22;26044;50.864;20.658;2022-11-25T02:33:55;0.40;99.90
40340;DHT22;26044;50.864;20.658;2022-11-25T02:36:22;0.40;99.90
40340;DHT22;26044;50.864;20.658;2022-11-25T02:38:55;0.40;99.90
40340;DHT22;26044;50.864;20.658;2022-11-25T02:41:31;0.40;99.90
40340;DHT22;26044;50.864;20.658;2022-11-25T02:43:58;0.40;99.90
40340;DHT22;26044;50.864;20.658;2022-11-25T02:46:27;0.50;99.90
40340;DHT22;26044;50.864;20.658;2022-11-25T02:48:56;0.40;99.90
40340;DHT22;26044;50.864;20.658;2022-11-25T02:51:40;0.50;99.90
40340;DHT22;26044;50.864;20.658;2022-11-25T02:54:07;0.50;99.90
40340;DHT22;26044;50.864;20.658;2022-11-25T02:56:35;0.50;99.90
40340;DHT22;26044;50.864;20.658;2022-11-25T02:59:02;0.50;99.90
40340;DHT22;26044;50.864;20.658;2022-11-25T03:01:30;0.60;99.90
40340;DHT22;26044;50.864;20.658;2022-11-25T03:03:58;0.60;99.90
40340;DHT22;26044;50.864;20.658;2022-11-25T03:06:25;0.60;99.90
40340;DHT22;26044;50.864;20.658;2022-11-25T03:08:52;0.60;99.90
40340;DHT22;26044;50.864;20.658;2022-11-25T03:11:18;0.60;99.90
40340;DHT22;26044;50.864;20.658;2022-11-25T03:13:45;0.50;99.90
40340;DHT22;26044;50.864;20.658;2022-11-25T03:16:12;0.50;99.90
40340;DHT22;26044;50.864;20.658;2022-11-25T03:18:38;0.50;99.90
40340;DHT22;26044;50.864;20.658;2022-11-25T03:21:05;0.50;99.90
40340;DHT22;26044;50.864;20.658;2022-11-25T03:23:33;0.50;99.90
40340;DHT22;26044;50.864;20.658;2022-11-25T03:26:04;0.50;99.90
40340;DHT22;26044;50.864;20.658;2022-11-25T03:28:31;0.50;99.90
40340;DHT22;26044;50.864;20.658;2022-11-25T03:30:57;0.50;99.90
40340;DHT22;26044;50.864;20.658;2022-11-25T03:33:24;0.50;99.90
40340;DHT22;26044;50.864;20.658;2022-11-25T03:35:52;0.50;99.90
40340;DHT22;26044;50.864;20.658;2022-11-25T03:38:19;0.50;99.90
40340;DHT22;26044;50.864;20.658;2022-11-25T03:40:46;0.50;99.90
40340;DHT22;26044;50.864;20.658;2022-11-25T03:43:13;0.50;99.90
40340;DHT22;26044;50.864;20.658;2022-11-25T03:45:39;0.50;99.90
40340;DHT22;26044;50.864;20.658;2022-11-25T03:48:09;0.50;99.90
40340;DHT22;26044;50.864;20.658;2022-11-25T03:50:36;0.50;99.90
40340;DHT22;26044;50.864;20.658;2022-11-25T03:53:02;0.60;99.90
40340;DHT22;26044;50.864;20.658;2022-11-25T03:55:29;0.60;99.90
40340;DHT22;26044;50.864;20.658;2022-11-25T03:57:55;0.60;99.90
40340;DHT22;26044;50.864;20.658;2022-11-25T04:00:22;0.60;99.90
40340;DHT22;26044;50.864;20.658;2022-11-25T04:02:49;0.60;99.90
40340;DHT22;26044;50.864;20.658;2022-11-25T04:05:16;0.60;99.90
40340;DHT22;26044;50.864;20.658;2022-11-25T04:07:43;0.60;99.90
40340;DHT22;26044;50.864;20.658;2022-11-25T04:10:10;0.60;99.90
40340;DHT22;26044;50.864;20.658;2022-11-25T04:12:37;0.70;99.90
40340;DHT22;26044;50.864;20.658;2022-11-25T04:15:14;0.70;99.90
40340;DHT22;26044;50.864;20.658;2022-11-25T04:17:41;0.70;99.90
40340;DHT22;26044;50.864;20.658;2022-11-25T04:20:09;0.70;99.90
40340;DHT22;26044;50.864;20.658;2022-11-25T04:22:36;0.70;99.90
40340;DHT22;26044;50.864;20.658;2022-11-25T04:25:03;0.70;99.90
40340;DHT22;26044;50.864;20.658;2022-11-25T04:27:30;0.80;99.90
40340;DHT22;26044;50.864;20.658;2022-11-25T04:29:57;0.80;99.90
40340;DHT22;26044;50.864;20.658;2022-11-25T04:32:23;0.80;99.90
40340;DHT22;26044;50.864;20.658;2022-11-25T04:34:50;0.80;99.90
40340;DHT22;26044;50.864;20.658;2022-11-25T04:37:17;0.80;99.90
40340;DHT22;26044;50.864;20.658;2022-11-25T04:39:44;0.80;99.90
40340;DHT22;26044;50.864;20.658;2022-11-25T04:42:11;0.80;99.90
40340;DHT22;26044;50.864;20.658;2022-11-25T04:44:57;0.80;99.90
40340;DHT22;26044;50.864;20.658;2022-11-25T04:47:44;0.80;99.90
40340;DHT22;26044;50.864;20.658;2022-11-25T04:50:15;0.80;99.90
40340;DHT22;26044;50.864;20.658;2022-11-25T04:52:42;0.80;99.90
40340;DHT22;26044;50.864;20.658;2022-11-25T04:55:09;0.80;99.90
40340;DHT22;26044;50.864;20.658;2022-11-25T04:57:35;0.80;99.90
40340;DHT22;26044;50.864;20.658;2022-11-25T05:00:03;0.80;99.90
40340;DHT22;26044;50.864;20.658;2022-11-25T05:02:30;0.80;99.90
40340;DHT22;26044;50.864;20.658;2022-11-25T05:04:57;0.80;99.90
40340;DHT22;26044;50.864;20.658;2022-11-25T05:07:26;0.80;99.90
40340;DHT22;26044;50.864;20.658;2022-11-25T05:09:56;0.80;99.90
40340;DHT22;26044;50.864;20.658;2022-11-25T05:12:26;0.90;99.90
40340;DHT22;26044;50.864;20.658;2022-11-25T05:14:53;0.90;99.90
40340;DHT22;26044;50.864;20.658;2022-11-25T05:17:25;0.90;99.90
40340;DHT22;26044;50.864;20.658;2022-11-25T05:19:52;0.90;99.90
40340;DHT22;26044;50.864;20.658;2022-11-25T05:22:21;0.90;99.90
40340;DHT22;26044;50.864;20.658;2022-11-25T05:24:48;0.90;99.90
40340;DHT22;26044;50.864;20.658;2022-11-25T05:27:16;0.90;99.90
40340;DHT22;26044;50.864;20.658;2022-11-25T05:29:43;0.90;99.90
40340;DHT22;26044;50.864;20.658;2022-11-25T05:32:10;0.90;99.90
40340;DHT22;26044;50.864;20.658;2022-11-25T05:34:37;0.90;99.90
40340;DHT22;26044;50.864;20.658;2022-11-25T05:37:05;0.90;99.90
40340;DHT22;26044;50.864;20.658;2022-11-25T05:39:32;0.90;99.90
40340;DHT22;26044;50.864;20.658;2022-11-25T05:41:58;0.90;99.90
40340;DHT22;26044;50.864;20.658;2022-11-25T05:44:25;0.90;99.90
40340;DHT22;26044;50.864;20.658;2022-11-25T05:46:52;0.90;99.90
40340;DHT22;26044;50.864;20.658;2022-11-25T05:49:19;1.00;99.90
40340;DHT22;26044;50.864;20.658;2022-11-25T05:51:47;1.00;99.90
40340;DHT22;26044;50.864;20.658;2022-11-25T05:54:13;0.90;99.90
40340;DHT22;26044;50.864;20.658;2022-11-25T05:56:40;0.90;99.90
40340;DHT22;26044;50.864;20.658;2022-11-25T05:59:07;0.90;99.90
40340;DHT22;26044;50.864;20.658;2022-11-25T06:01:34;0.90;99.90
40340;DHT22;26044;50.864;20.658;2022-11-25T06:04:02;0.80;99.90
40340;DHT22;26044;50.864;20.658;2022-11-25T06:06:29;0.80;99.90
40340;DHT22;26044;50.864;20.658;2022-11-25T06:08:56;0.80;99.90
40340;DHT22;26044;50.864;20.658;2022-11-25T06:11:23;0.80;99.90
40340;DHT22;26044;50.864;20.658;2022-11-25T06:13:51;0.90;99.90
40340;DHT22;26044;50.864;20.658;2022-11-25T06:16:20;0.90;99.90
40340;DHT22;26044;50.864;20.658;2022-11-25T06:18:47;0.90;99.90
40340;DHT22;26044;50.864;20.658;2022-11-25T06:21:15;1.00;99.90
40340;DHT22;26044;50.864;20.658;2022-11-25T06:23:42;0.90;99.90
40340;DHT22;26044;50.864;20.658;2022-11-25T06:26:19;1.00;99.90
40340;DHT22;26044;50.864;20.658;2022-11-25T06:28:46;1.00;99.90
40340;DHT22;26044;50.864;20.658;2022-11-25T06:31:16;1.00;99.90
40340;DHT22;26044;50.864;20.658;2022-11-25T06:33:46;1.10;99.90
40340;DHT22;26044;50.864;20.658;2022-11-25T06:36:13;1.10;99.90
40340;DHT22;26044;50.864;20.658;2022-11-25T06:38:47;1.10;99.90
40340;DHT22;26044;50.864;20.658;2022-11-25T06:41:15;1.10;99.90
40340;DHT22;26044;50.864;20.658;2022-11-25T06:43:42;1.10;99.90
40340;DHT22;26044;50.864;20.658;2022-11-25T06:46:14;1.10;99.90
40340;DHT22;26044;50.864;20.658;2022-11-25T06:48:48;1.10;99.90
40340;DHT22;26044;50.864;20.658;2022-11-25T06:51:15;1.10;99.90
40340;DHT22;26044;50.864;20.658;2022-11-25T06:53:43;1.10;99.90
40340;DHT22;26044;50.864;20.658;2022-11-25T06:58:45;1.10;99.90
40340;DHT22;26044;50.864;20.658;2022-11-25T07:03:51;1.10;99.90
40340;DHT22;26044;50.864;20.658;2022-11-25T07:06:19;1.10;99.90
40340;DHT22;26044;50.864;20.658;2022-11-25T07:08:47;1.10;99.90
40340;DHT22;26044;50.864;20.658;2022-11-25T07:11:20;1.10;99.90
40340;DHT22;26044;50.864;20.658;2022-11-25T07:13:50;1.20;99.90
40340;DHT22;26044;50.864;20.658;2022-11-25T07:16:16;1.10;99.90
40340;DHT22;26044;50.864;20.658;2022-11-25T07:18:43;1.10;99.90
40340;DHT22;26044;50.864;20.658;2022-11-25T07:21:11;1.20;99.90
40340;DHT22;26044;50.864;20.658;2022-11-25T07:23:39;1.10;99.90
40340;DHT22;26044;50.864;20.658;2022-11-25T07:26:09;1.20;99.90
40340;DHT22;26044;50.864;20.658;2022-11-25T07:28:37;1.20;99.90
40340;DHT22;26044;50.864;20.658;2022-11-25T07:31:10;1.30;99.90
40340;DHT22;26044;50.864;20.658;2022-11-25T07:34:00;1.30;99.90
40340;DHT22;26044;50.864;20.658;2022-11-25T07:36:28;1.30;99.90
40340;DHT22;26044;50.864;20.658;2022-11-25T07:38:57;1.40;99.90
40340;DHT22;26044;50.864;20.658;2022-11-25T07:41:26;1.40;99.90
40340;DHT22;26044;50.864;20.658;2022-11-25T07:44:00;1.40;99.90
40340;DHT22;26044;50.864;20.658;2022-11-25T07:46:31;1.50;99.90
40340;DHT22;26044;50.864;20.658;2022-11-25T07:49:02;1.50;99.90
40340;DHT22;26044;50.864;20.658;2022-11-25T07:51:32;1.50;99.90
40340;DHT22;26044;50.864;20.658;2022-11-25T07:54:01;1.60;99.90
40340;DHT22;26044;50.864;20.658;2022-11-25T07:56:28;1.60;99.90
40340;DHT22;26044;50.864;20.658;2022-11-25T07:58:56;1.60;99.90
40340;DHT22;26044;50.864;20.658;2022-11-25T08:01:23;1.50;99.90
40340;DHT22;26044;50.864;20.658;2022-11-25T08:03:51;1.50;99.90
40340;DHT22;26044;50.864;20.658;2022-11-25T08:06:21;1.60;99.90
40340;DHT22;26044;50.864;20.658;2022-11-25T08:08:49;1.60;99.90
40340;DHT22;26044;50.864;20.658;2022-11-25T08:11:24;1.60;99.90
40340;DHT22;26044;50.864;20.658;2022-11-25T08:13:52;1.70;99.90
40340;DHT22;26044;50.864;20.658;2022-11-25T08:16:21;1.70;99.90
40340;DHT22;26044;50.864;20.658;2022-11-25T08:18:49;1.70;99.90
40340;DHT22;26044;50.864;20.658;2022-11-25T08:21:16;1.80;99.90
40340;DHT22;26044;50.864;20.658;2022-11-25T08:23:44;1.80;99.90
40340;DHT22;26044;50.864;20.658;2022-11-25T08:26:22;1.80;99.90
40340;DHT22;26044;50.864;20.658;2022-11-25T08:28:49;1.80;99.90
40340;DHT22;26044;50.864;20.658;2022-11-25T08:31:34;1.80;99.90
40340;DHT22;26044;50.864;20.658;2022-11-25T08:34:02;1.80;99.90
40340;DHT22;26044;50.864;20.658;2022-11-25T08:36:30;1.80;99.90
40340;DHT22;26044;50.864;20.658;2022-11-25T08:38:59;1.90;99.90
40340;DHT22;26044;50.864;20.658;2022-11-25T08:41:32;1.90;99.90
40340;DHT22;26044;50.864;20.658;2022-11-25T08:44:01;1.90;99.90
40340;DHT22;26044;50.864;20.658;2022-11-25T08:46:30;1.90;99.90
40340;DHT22;26044;50.864;20.658;2022-11-25T08:48:59;1.90;99.90
40340;DHT22;26044;50.864;20.658;2022-11-25T08:51:31;1.90;99.90
40340;DHT22;26044;50.864;20.658;2022-11-25T08:53:58;1.80;99.90
40340;DHT22;26044;50.864;20.658;2022-11-25T08:56:26;1.80;99.90
40340;DHT22;26044;50.864;20.658;2022-11-25T08:58:53;1.80;99.90
40340;DHT22;26044;50.864;20.658;2022-11-25T09:01:22;1.90;99.90
40340;DHT22;26044;50.864;20.658;2022-11-25T09:03:50;1.80;99.90
40340;DHT22;26044;50.864;20.658;2022-11-25T09:06:18;1.90;99.90
40340;DHT22;26044;50.864;20.658;2022-11-25T09:08:45;1.90;99.90
40340;DHT22;26044;50.864;20.658;2022-11-25T09:11:13;1.90;99.90
40340;DHT22;26044;50.864;20.658;2022-11-25T09:13:40;1.90;99.90
40340;DHT22;26044;50.864;20.658;2022-11-25T09:16:08;2.00;99.90
40340;DHT22;26044;50.864;20.658;2022-11-25T09:18:35;2.00;99.90
40340;DHT22;26044;50.864;20.658;2022-11-25T09:21:10;2.00;99.90
40340;DHT22;26044;50.864;20.658;2022-11-25T09:23:38;2.00;99.90
40340;DHT22;26044;50.864;20.658;2022-11-25T09:26:06;2.00;99.90
40340;DHT22;26044;50.864;20.658;2022-11-25T09:28:33;2.00;99.90
40340;DHT22;26044;50.864;20.658;2022-11-25T09:31:08;2.00;99.90
40340;DHT22;26044;50.864;20.658;2022-11-25T09:33:35;2.00;99.90
40340;DHT22;26044;50.864;20.658;2022-11-25T09:36:03;2.00;99.90
40340;DHT22;26044;50.864;20.658;2022-11-25T09:38:31;2.10;99.90
40340;DHT22;26044;50.864;20.658;2022-11-25T09:41:09;2.10;99.90
40340;DHT22;26044;50.864;20.658;2022-11-25T09:44:04;2.10;99.90
40340;DHT22;26044;50.864;20.658;2022-11-25T09:49:45;2.20;99.90
40340;DHT22;26044;50.864;20.658;2022-11-25T09:55:07;2.10;99.90
40340;DHT22;26044;50.864;20.658;2022-11-25T10:00:36;2.10;99.90
40340;DHT22;26044;50.864;20.658;2022-11-25T10:03:24;2.10;99.90
40340;DHT22;26044;50.864;20.658;2022-11-25T10:06:04;2.10;99.90
40340;DHT22;26044;50.864;20.658;2022-11-25T10:08:42;2.00;99.90
40340;DHT22;26044;50.864;20.658;2022-11-25T10:19:54;2.10;99.90
40340;DHT22;26044;50.864;20.658;2022-11-25T10:22:35;2.10;99.90
40340;DHT22;26044;50.864;20.658;2022-11-25T10:25:16;2.10;99.90
40340;DHT22;26044;50.864;20.658;2022-11-25T10:33:19;2.20;99.90
40340;DHT22;26044;50.864;20.658;2022-11-25T10:35:59;2.10;99.90
40340;DHT22;26044;50.864;20.658;2022-11-25T10:38:33;2.20;99.90
40340;DHT22;26044;50.864;20.658;2022-11-25T10:41:02;2.20;99.90
40340;DHT22;26044;50.864;20.658;2022-11-25T10:43:30;2.20;99.90
40340;DHT22;26044;50.864;20.658;2022-11-25T10:46:10;2.30;99.90
40340;DHT22;26044;50.864;20.658;2022-11-25T10:48:51;2.20;99.90
40340;DHT22;26044;50.864;20.658;2022-11-25T10:54:27;2.30;99.90
40340;DHT22;26044;50.864;20.658;2022-11-25T10:57:02;2.30;99.90
40340;DHT22;26044;50.864;20.658;2022-11-25T10:59:31;2.30;99.90
40340;DHT22;26044;50.864;20.658;2022-11-25T11:04:58;2.30;99.90
40340;DHT22;26044;50.864;20.658;2022-11-25T11:07:29;2.20;99.90
40340;DHT22;26044;50.864;20.658;2022-11-25T11:13:04;2.20;99.90
40340;DHT22;26044;50.864;20.658;2022-11-25T11:20:48;2.10;99.90
40340;DHT22;26044;50.864;20.658;2022-11-25T11:23:15;2.20;99.90
40340;DHT22;26044;50.864;20.658;2022-11-25T11:25:54;2.20;99.90
40340;DHT22;26044;50.864;20.658;2022-11-25T11:31:00;2.20;99.90
40340;DHT22;26044;50.864;20.658;2022-11-25T11:36:43;2.30;99.90
40340;DHT22;26044;50.864;20.658;2022-11-25T11:39:19;2.20;99.90
40340;DHT22;26044;50.864;20.658;2022-11-25T11:56:39;2.20;99.90
40340;DHT22;26044;50.864;20.658;2022-11-25T11:59:25;2.20;99.90
40340;DHT22;26044;50.864;20.658;2022-11-25T12:04:55;2.10;99.90
40340;DHT22;26044;50.864;20.658;2022-11-25T12:07:41;2.20;99.90
40340;DHT22;26044;50.864;20.658;2022-11-25T12:15:55;2.10;99.90
40340;DHT22;26044;50.864;20.658;2022-11-25T12:18:31;2.10;99.90
40340;DHT22;26044;50.864;20.658;2022-11-25T12:21:03;2.20;99.90
40340;DHT22;26044;50.864;20.658;2022-11-25T12:24:09;2.30;99.90
40340;DHT22;26044;50.864;20.658;2022-11-25T12:26:56;2.20;99.90
40340;DHT22;26044;50.864;20.658;2022-11-25T12:29:32;2.20;99.90
40340;DHT22;26044;50.864;20.658;2022-11-25T12:34:52;2.20;99.90
40340;DHT22;26044;50.864;20.658;2022-11-25T12:37:35;2.20;99.90
40340;DHT22;26044;50.864;20.658;2022-11-25T12:40:15;2.20;99.90
40340;DHT22;26044;50.864;20.658;2022-11-25T12:42:44;2.20;99.90
40340;DHT22;26044;50.864;20.658;2022-11-25T12:45:20;2.20;99.90
40340;DHT22;26044;50.864;20.658;2022-11-25T12:47:48;2.20;99.90
40340;DHT22;26044;50.864;20.658;2022-11-25T12:50:17;2.20;99.90
40340;DHT22;26044;50.864;20.658;2022-11-25T12:52:49;2.20;99.90
40340;DHT22;26044;50.864;20.658;2022-11-25T12:55:23;2.20;99.90
40340;DHT22;26044;50.864;20.658;2022-11-25T13:04:07;2.20;99.90
40340;DHT22;26044;50.864;20.658;2022-11-25T13:09:45;2.10;99.90
40340;DHT22;26044;50.864;20.658;2022-11-25T13:13:02;2.10;99.90
40340;DHT22;26044;50.864;20.658;2022-11-25T13:15:42;2.00;99.90
40340;DHT22;26044;50.864;20.658;2022-11-25T13:18:13;2.10;99.90
40340;DHT22;26044;50.864;20.658;2022-11-25T13:20:42;2.00;99.90
40340;DHT22;26044;50.864;20.658;2022-11-25T13:25:46;2.10;99.90
40340;DHT22;26044;50.864;20.658;2022-11-25T13:28:33;2.10;99.90
40340;DHT22;26044;50.864;20.658;2022-11-25T13:36:17;2.10;99.90
40340;DHT22;26044;50.864;20.658;2022-11-25T13:49:00;2.00;99.90
40340;DHT22;26044;50.864;20.658;2022-11-25T13:51:27;2.00;99.90
40340;DHT22;26044;50.864;20.658;2022-11-25T13:54:03;2.00;99.90
40340;DHT22;26044;50.864;20.658;2022-11-25T13:56:33;2.10;99.90
40340;DHT22;26044;50.864;20.658;2022-11-25T14:01:39;2.10;99.90
40340;DHT22;26044;50.864;20.658;2022-11-25T14:04:07;2.00;99.90
40340;DHT22;26044;50.864;20.658;2022-11-25T14:07:03;2.00;99.90
40340;DHT22;26044;50.864;20.658;2022-11-25T14:09:54;2.00;99.90
40340;DHT22;26044;50.864;20.658;2022-11-25T14:13:03;2.00;99.90
40340;DHT22;26044;50.864;20.658;2022-11-25T14:15:53;2.00;99.90
40340;DHT22;26044;50.864;20.658;2022-11-25T14:18:35;2.00;99.90
40340;DHT22;26044;50.864;20.658;2022-11-25T14:24:34;2.10;99.90
40340;DHT22;26044;50.864;20.658;2022-11-25T14:27:04;2.10;99.90
40340;DHT22;26044;50.864;20.658;2022-11-25T14:32:06;2.10;99.90
40340;DHT22;26044;50.864;20.658;2022-11-25T14:37:54;2.10;99.90
40340;DHT22;26044;50.864;20.658;2022-11-25T14:40:35;2.00;99.90
40340;DHT22;26044;50.864;20.658;2022-11-25T14:43:07;2.00;99.90
40340;DHT22;26044;50.864;20.658;2022-11-25T14:45:37;2.00;99.90
40340;DHT22;26044;50.864;20.658;2022-11-25T14:48:17;2.00;99.90
40340;DHT22;26044;50.864;20.658;2022-11-25T14:51:14;2.00;99.90
40340;DHT22;26044;50.864;20.658;2022-11-25T14:53:45;2.00;99.90
40340;DHT22;26044;50.864;20.658;2022-11-25T14:56:18;1.90;99.90
40340;DHT22;26044;50.864;20.658;2022-11-25T14:58:49;1.90;99.90
40340;DHT22;26044;50.864;20.658;2022-11-25T15:01:22;1.90;99.90
40340;DHT22;26044;50.864;20.658;2022-11-25T15:03:51;1.90;99.90
40340;DHT22;26044;50.864;20.658;2022-11-25T15:06:31;1.90;99.90
40340;DHT22;26044;50.864;20.658;2022-11-25T15:08:58;1.90;99.90
40340;DHT22;26044;50.864;20.658;2022-11-25T15:11:28;1.90;99.90
40340;DHT22;26044;50.864;20.658;2022-11-25T15:14:04;1.90;99.90
40340;DHT22;26044;50.864;20.658;2022-11-25T15:16:37;1.90;99.90
40340;DHT22;26044;50.864;20.658;2022-11-25T15:19:13;1.90;99.90
40340;DHT22;26044;50.864;20.658;2022-11-25T15:21:42;1.90;99.90
40340;DHT22;26044;50.864;20.658;2022-11-25T15:24:32;1.90;99.90
40340;DHT22;26044;50.864;20.658;2022-11-25T15:29:44;1.80;99.90
40340;DHT22;26044;50.864;20.658;2022-11-25T15:32:17;1.80;99.90
40340;DHT22;26044;50.864;20.658;2022-11-25T15:34:45;1.70;99.90
40340;DHT22;26044;50.864;20.658;2022-11-25T15:37:12;1.70;99.90
40340;DHT22;26044;50.864;20.658;2022-11-25T15:39:39;1.70;99.90
40340;DHT22;26044;50.864;20.658;2022-11-25T15:44:54;1.70;99.90
40340;DHT22;26044;50.864;20.658;2022-11-25T15:47:24;1.70;99.90
40340;DHT22;26044;50.864;20.658;2022-11-25T15:50:02;1.70;99.90
40340;DHT22;26044;50.864;20.658;2022-11-25T15:52:31;1.70;99.90
40340;DHT22;26044;50.864;20.658;2022-11-25T15:55:02;1.60;99.90
40340;DHT22;26044;50.864;20.658;2022-11-25T15:57:33;1.60;99.90
40340;DHT22;26044;50.864;20.658;2022-11-25T16:21:12;1.50;99.90
40340;DHT22;26044;50.864;20.658;2022-11-25T16:23:53;1.50;99.90
40340;DHT22;26044;50.864;20.658;2022-11-25T16:26:47;1.50;99.90
40340;DHT22;26044;50.864;20.658;2022-11-25T16:29:38;1.50;99.90
40340;DHT22;26044;50.864;20.658;2022-11-25T16:32:13;1.50;99.90
40340;DHT22;26044;50.864;20.658;2022-11-25T16:34:41;1.50;99.90
40340;DHT22;26044;50.864;20.658;2022-11-25T16:37:09;1.50;99.90
40340;DHT22;26044;50.864;20.658;2022-11-25T16:39:36;1.50;99.90
40340;DHT22;26044;50.864;20.658;2022-11-25T16:42:05;1.50;99.90
40340;DHT22;26044;50.864;20.658;2022-11-25T16:44:33;1.50;99.90
40340;DHT22;26044;50.864;20.658;2022-11-25T16:47:02;1.50;99.90
40340;DHT22;26044;50.864;20.658;2022-11-25T16:49:30;1.50;99.90
40340;DHT22;26044;50.864;20.658;2022-11-25T16:51:57;1.50;99.90
40340;DHT22;26044;50.864;20.658;2022-11-25T16:54:23;1.50;99.90
40340;DHT22;26044;50.864;20.658;2022-11-25T16:56:52;1.50;99.90
40340;DHT22;26044;50.864;20.658;2022-11-25T16:59:29;1.50;99.90
40340;DHT22;26044;50.864;20.658;2022-11-25T17:01:58;1.50;99.90
40340;DHT22;26044;50.864;20.658;2022-11-25T17:04:26;1.50;99.90
40340;DHT22;26044;50.864;20.658;2022-11-25T17:06:54;1.50;99.90
40340;DHT22;26044;50.864;20.658;2022-11-25T17:09:41;1.50;99.90
40340;DHT22;26044;50.864;20.658;2022-11-25T17:12:14;1.50;99.90
40340;DHT22;26044;50.864;20.658;2022-11-25T17:14:42;1.40;99.90
40340;DHT22;26044;50.864;20.658;2022-11-25T17:17:14;1.50;99.90
40340;DHT22;26044;50.864;20.658;2022-11-25T17:19:49;1.50;99.90
40340;DHT22;26044;50.864;20.658;2022-11-25T17:22:22;1.50;99.90
40340;DHT22;26044;50.864;20.658;2022-11-25T17:24:49;1.50;99.90
40340;DHT22;26044;50.864;20.658;2022-11-25T17:27:26;1.50;99.90
40340;DHT22;26044;50.864;20.658;2022-11-25T17:29:55;1.50;99.90
40340;DHT22;26044;50.864;20.658;2022-11-25T17:32:24;1.50;99.90
40340;DHT22;26044;50.864;20.658;2022-11-25T17:34:52;1.50;99.90
40340;DHT22;26044;50.864;20.658;2022-11-25T17:37:23;1.50;99.90
40340;DHT22;26044;50.864;20.658;2022-11-25T17:39:52;1.40;99.90
40340;DHT22;26044;50.864;20.658;2022-11-25T17:42:27;1.40;99.90
40340;DHT22;26044;50.864;20.658;2022-11-25T17:44:55;1.50;99.90
40340;DHT22;26044;50.864;20.658;2022-11-25T17:47:22;1.50;99.90
40340;DHT22;26044;50.864;20.658;2022-11-25T17:49:49;1.40;99.90
40340;DHT22;26044;50.864;20.658;2022-11-25T17:52:17;1.40;99.90
40340;DHT22;26044;50.864;20.658;2022-11-25T17:54:44;1.40;99.90
40340;DHT22;26044;50.864;20.658;2022-11-25T17:57:14;1.50;99.90
40340;DHT22;26044;50.864;20.658;2022-11-25T17:59:42;1.40;99.90
40340;DHT22;26044;50.864;20.658;2022-11-25T18:02:17;1.40;99.90
40340;DHT22;26044;50.864;20.658;2022-11-25T18:04:45;1.40;99.90
40340;DHT22;26044;50.864;20.658;2022-11-25T18:07:14;1.40;99.90
40340;DHT22;26044;50.864;20.658;2022-11-25T18:09:41;1.50;99.90
40340;DHT22;26044;50.864;20.658;2022-11-25T18:12:28;1.40;99.90
40340;DHT22;26044;50.864;20.658;2022-11-25T18:14:56;1.50;99.90
40340;DHT22;26044;50.864;20.658;2022-11-25T18:17:23;1.50;99.90
40340;DHT22;26044;50.864;20.658;2022-11-25T18:19:50;1.40;99.90